createdAt,value
2023-05-13T00:01:27.891Z,19.80
2023-05-13T00:03:55.970Z,22.80
2023-05-13T00:06:24.312Z,21.70
2023-05-13T00:08:52.710Z,18.80
2023-05-13T00:11:20.681Z,21.00
2023-05-13T00:13:48.610Z,19.20
2023-05-13T00:16:16.709Z,17.70
2023-05-13T00:18:45.309Z,19.10
2023-05-13T00:21:13.490Z,19.90
2023-05-13T00:23:42.068Z,20.40
2023-05-13T00:26:10.256Z,17.80
2023-05-13T00:28:38.784Z,17.40
2023-05-13T00:31:06.906Z,18.60
2023-05-13T00:33:35.373Z,21.30
2023-05-13T00:36:04.166Z,22.50
2023-05-13T00:38:33.049Z,23.20
2023-05-13T00:41:01.533Z,20.10
2023-05-13T00:43:30.223Z,18.10
2023-05-13T00:45:58.901Z,23.60
2023-05-13T00:48:27.501Z,20.80
2023-05-13T00:50:55.797Z,15.70
2023-05-13T00:53:23.734Z,24.50
2023-05-13T00:55:51.845Z,22.30
2023-05-13T00:58:19.982Z,23.00
2023-05-13T01:01:11.102Z,22.60
2023-05-13T01:03:53.658Z,23.60
2023-05-13T01:06:46.202Z,19.50
2023-05-13T01:09:34.079Z,24.90
2023-05-13T01:12:09.114Z,20.10
2023-05-13T01:14:47.936Z,22.90
2023-05-13T01:17:20.842Z,22.10
2023-05-13T01:19:54.427Z,21.90
2023-05-13T01:22:22.708Z,22.90
2023-05-13T01:24:50.715Z,19.00
2023-05-13T01:27:19.384Z,21.00
2023-05-13T01:29:49.272Z,17.70
2023-05-13T01:32:21.753Z,23.60
2023-05-13T01:34:52.564Z,24.70
2023-05-13T01:37:23.520Z,14.20
2023-05-13T01:39:52.218Z,22.20
2023-05-13T01:42:20.876Z,22.30
2023-05-13T01:44:49.268Z,27.10
2023-05-13T01:47:17.440Z,26.80
2023-05-13T01:49:45.415Z,22.70
2023-05-13T01:52:13.483Z,27.00
2023-05-13T01:54:41.932Z,17.60
2023-05-13T01:57:12.094Z,25.70
2023-05-13T01:59:40.380Z,32.70
2023-05-13T02:02:08.584Z,24.60
2023-05-13T02:04:36.771Z,20.30
2023-05-13T02:07:04.947Z,26.90
2023-05-13T02:09:33.440Z,25.10
2023-05-13T02:12:01.592Z,26.50
2023-05-13T02:14:29.961Z,21.40
2023-05-13T02:16:58.261Z,21.60
2023-05-13T02:19:26.569Z,25.10
2023-05-13T02:21:54.744Z,25.10
2023-05-13T02:24:23.082Z,23.60
2023-05-13T02:26:51.485Z,23.50
2023-05-13T02:29:19.532Z,24.00
2023-05-13T02:31:47.589Z,23.60
2023-05-13T02:34:15.625Z,27.00
2023-05-13T02:36:43.688Z,27.80
2023-05-13T02:39:12.070Z,24.90
2023-05-13T02:41:40.870Z,27.30
2023-05-13T02:44:09.439Z,27.50
2023-05-13T02:46:37.732Z,26.70
2023-05-13T02:49:06.609Z,28.80
2023-05-13T02:51:35.204Z,29.50
2023-05-13T02:54:03.874Z,32.40
2023-05-13T02:56:31.938Z,26.60
2023-05-13T02:59:00.257Z,31.80
2023-05-13T03:01:28.617Z,27.70
2023-05-13T03:03:56.891Z,30.40
2023-05-13T03:06:24.961Z,34.20
2023-05-13T03:08:52.954Z,35.10
2023-05-13T03:11:21.821Z,33.80
2023-05-13T03:13:49.727Z,30.00
2023-05-13T03:16:17.850Z,29.90
2023-05-13T03:18:47.094Z,26.30
2023-05-13T03:21:16.083Z,24.60
2023-05-13T03:23:44.305Z,24.20
2023-05-13T03:26:12.433Z,23.50
2023-05-13T03:28:41.131Z,24.60
2023-05-13T03:31:09.536Z,28.60
2023-05-13T03:33:39.383Z,24.30
2023-05-13T03:36:08.198Z,28.50
2023-05-13T03:38:36.431Z,22.80
2023-05-13T03:41:04.918Z,26.10
2023-05-13T03:43:32.996Z,27.90
2023-05-13T03:46:03.017Z,29.90
2023-05-13T03:48:32.001Z,25.90
2023-05-13T03:51:02.028Z,29.20
2023-05-13T03:53:30.815Z,31.60
2023-05-13T03:55:58.953Z,22.80
2023-05-13T03:58:29.531Z,28.60
2023-05-13T04:00:58.719Z,31.30
2023-05-13T04:03:28.136Z,27.10
2023-05-13T04:05:56.490Z,26.70
2023-05-13T04:08:24.560Z,32.20
2023-05-13T04:10:52.937Z,25.90
2023-05-13T04:13:21.010Z,28.50
2023-05-13T04:15:49.187Z,28.30
2023-05-13T04:18:17.128Z,32.10
2023-05-13T04:20:45.079Z,23.00
2023-05-13T04:23:13.198Z,31.70
2023-05-13T04:25:42.155Z,28.70
2023-05-13T04:28:10.153Z,21.50
2023-05-13T04:30:43.964Z,28.00
2023-05-13T04:33:12.356Z,33.10
2023-05-13T04:35:43.891Z,27.10
2023-05-13T04:38:12.775Z,30.80
2023-05-13T04:40:41.513Z,27.00
2023-05-13T04:45:49.005Z,26.10
2023-05-13T04:48:21.724Z,31.00
2023-05-13T04:50:54.114Z,31.40
2023-05-13T04:53:24.492Z,27.00
2023-05-13T04:56:00.668Z,24.80
2023-05-13T04:58:29.941Z,32.20
2023-05-13T05:00:58.334Z,26.90
2023-05-13T05:03:26.737Z,24.70
2023-05-13T05:05:55.066Z,26.40
2023-05-13T05:08:24.768Z,31.40
2023-05-13T05:10:52.793Z,26.20
2023-05-13T05:13:21.334Z,22.10
2023-05-13T05:15:49.599Z,32.60
2023-05-13T05:18:17.556Z,18.60
2023-05-13T05:20:48.505Z,23.10
2023-05-13T05:23:21.084Z,25.30
2023-05-13T05:25:57.814Z,24.80
2023-05-13T05:28:34.549Z,22.30
2023-05-13T05:31:03.218Z,21.30
2023-05-13T05:33:32.826Z,22.00
2023-05-13T05:36:01.180Z,18.20
2023-05-13T05:38:29.762Z,25.50
2023-05-13T05:40:59.194Z,24.90
2023-05-13T05:43:27.648Z,19.50
2023-05-13T05:45:55.804Z,19.90
2023-05-13T05:48:24.065Z,22.30
2023-05-13T05:50:52.181Z,23.50
2023-05-13T05:53:27.128Z,20.40
2023-05-13T05:55:55.452Z,20.40
2023-05-13T05:58:24.191Z,19.90
2023-05-13T06:00:54.423Z,21.10
2023-05-13T06:03:22.764Z,23.30
2023-05-13T06:05:51.066Z,23.80
2023-05-13T06:08:20.333Z,23.90
2023-05-13T06:10:48.646Z,27.70
2023-05-13T06:13:16.955Z,21.40
2023-05-13T06:15:45.251Z,23.60
2023-05-13T06:18:13.238Z,21.90
2023-05-13T06:20:41.604Z,26.20
2023-05-13T06:23:10.122Z,23.80
2023-05-13T06:25:38.053Z,18.90
2023-05-13T06:28:10.776Z,24.50
2023-05-13T06:30:39.210Z,22.80
2023-05-13T06:33:10.656Z,20.30
2023-05-13T06:35:38.959Z,31.50
2023-05-13T06:38:07.847Z,20.20
2023-05-13T06:40:37.083Z,28.60
2023-05-13T06:43:06.549Z,24.80
2023-05-13T06:45:38.866Z,29.30
2023-05-13T06:48:07.007Z,20.00
2023-05-13T06:50:35.149Z,22.50
2023-05-13T06:53:03.500Z,25.70
2023-05-13T06:55:32.080Z,21.70
2023-05-13T06:57:59.993Z,25.90
2023-05-13T07:00:28.117Z,22.70
2023-05-13T07:02:56.128Z,22.30
2023-05-13T07:05:24.275Z,22.40
2023-05-13T07:07:53.859Z,26.30
2023-05-13T07:10:22.319Z,18.80
2023-05-13T07:12:50.927Z,21.70
2023-05-13T07:15:19.026Z,22.80
2023-05-13T07:17:47.676Z,24.60
2023-05-13T07:20:16.265Z,25.40
2023-05-13T07:22:44.269Z,25.60
2023-05-13T07:25:12.577Z,23.20
2023-05-13T07:27:40.951Z,22.70
2023-05-13T07:30:11.176Z,21.70
2023-05-13T07:32:40.756Z,19.00
2023-05-13T07:35:10.323Z,22.50
2023-05-13T07:37:38.593Z,31.00
2023-05-13T07:40:08.116Z,30.80
2023-05-13T07:42:37.300Z,23.90
2023-05-13T07:45:06.502Z,20.30
2023-05-13T07:47:34.988Z,25.40
2023-05-13T07:50:03.660Z,19.80
2023-05-13T07:52:32.711Z,19.40
2023-05-13T07:55:01.447Z,16.10
2023-05-13T07:57:29.362Z,19.60
2023-05-13T07:59:57.685Z,24.30
2023-05-13T08:02:26.011Z,21.70
2023-05-13T08:04:54.293Z,19.30
2023-05-13T08:07:22.416Z,18.30
2023-05-13T08:09:50.492Z,19.70
2023-05-13T08:12:18.561Z,13.60
2023-05-13T08:14:48.741Z,15.30
2023-05-13T08:17:20.100Z,15.40
2023-05-13T08:19:48.198Z,17.10
2023-05-13T08:22:16.280Z,17.60
2023-05-13T08:24:44.446Z,17.80
2023-05-13T08:27:13.069Z,24.50
2023-05-13T08:29:41.100Z,19.00
2023-05-13T08:32:09.203Z,22.30
2023-05-13T08:34:37.500Z,21.80
2023-05-13T08:37:05.524Z,19.40
2023-05-13T08:39:33.430Z,19.80
2023-05-13T08:42:04.200Z,15.90
2023-05-13T08:44:33.032Z,15.00
2023-05-13T08:47:17.633Z,19.10
2023-05-13T08:49:46.761Z,17.50
2023-05-13T08:52:15.044Z,24.50
2023-05-13T08:54:43.904Z,21.10
2023-05-13T08:57:12.057Z,20.60
2023-05-13T08:59:40.589Z,23.80
2023-05-13T09:02:10.712Z,23.80
2023-05-13T09:04:41.425Z,14.80
2023-05-13T09:07:10.948Z,17.90
2023-05-13T09:09:39.160Z,19.50
2023-05-13T09:12:08.236Z,21.70
2023-05-13T09:14:37.975Z,18.80
2023-05-13T09:17:06.250Z,18.10
2023-05-13T09:19:36.353Z,22.60
2023-05-13T09:22:04.600Z,16.20
2023-05-13T09:24:33.806Z,17.00
2023-05-13T09:27:01.873Z,18.40
2023-05-13T09:29:30.448Z,27.40
2023-05-13T09:32:06.610Z,21.90
2023-05-13T09:34:35.330Z,16.70
2023-05-13T09:37:06.474Z,18.80
2023-05-13T09:39:39.532Z,18.20
2023-05-13T09:42:20.504Z,18.50
2023-05-13T09:44:49.825Z,20.70
2023-05-13T09:47:18.017Z,21.70
2023-05-13T09:49:55.880Z,21.50
2023-05-13T09:52:23.964Z,23.40
2023-05-13T09:54:52.045Z,16.00
2023-05-13T09:57:21.220Z,17.00
2023-05-13T09:59:49.293Z,14.80
2023-05-13T10:02:19.041Z,18.20
2023-05-13T10:04:47.799Z,19.30
2023-05-13T10:07:16.294Z,14.00
2023-05-13T10:09:46.440Z,20.10
2023-05-13T10:12:15.187Z,18.50
2023-05-13T10:14:44.083Z,18.30
2023-05-13T10:17:13.593Z,20.10
2023-05-13T10:19:42.478Z,24.30
2023-05-13T10:22:12.175Z,24.80
2023-05-13T10:24:42.862Z,21.00
2023-05-13T10:27:12.011Z,21.20
2023-05-13T10:29:42.757Z,20.70
2023-05-13T10:32:12.507Z,20.00
2023-05-13T10:34:43.455Z,23.00
2023-05-13T10:37:33.147Z,24.00
2023-05-13T10:40:26.241Z,20.70
2023-05-13T10:43:18.466Z,21.00
2023-05-13T10:45:56.428Z,24.10
2023-05-13T10:48:24.760Z,18.80
2023-05-13T10:51:01.723Z,19.50
2023-05-13T10:53:32.146Z,18.10
2023-05-13T10:56:00.328Z,22.00
2023-05-13T10:58:31.194Z,23.50
2023-05-13T11:01:43.460Z,24.50
2023-05-13T11:04:17.118Z,20.40
2023-05-13T11:06:46.863Z,18.30
2023-05-13T11:09:20.997Z,22.20
2023-05-13T11:11:53.986Z,19.50
2023-05-13T11:14:23.865Z,19.40
2023-05-13T11:16:55.034Z,22.70
2023-05-13T11:19:27.407Z,19.60
2023-05-13T11:22:18.538Z,22.60
2023-05-13T11:25:08.444Z,22.50
2023-05-13T11:27:41.631Z,22.00
2023-05-13T11:30:26.977Z,16.10
2023-05-13T11:32:59.564Z,20.80
2023-05-13T11:35:32.801Z,22.50
2023-05-13T11:38:02.991Z,20.90
2023-05-13T11:40:36.500Z,25.20
2023-05-13T11:43:05.161Z,22.40
2023-05-13T11:45:38.413Z,22.50
2023-05-13T11:48:23.546Z,16.40
2023-05-13T11:50:54.336Z,21.10
2023-05-13T11:53:23.010Z,19.20
2023-05-13T11:55:51.840Z,21.30
2023-05-13T11:58:21.668Z,18.20
2023-05-13T12:00:49.818Z,21.20
2023-05-13T12:03:17.837Z,25.70
2023-05-13T12:05:46.196Z,25.70
2023-05-13T12:08:14.373Z,16.90
2023-05-13T12:10:45.744Z,18.90
2023-05-13T12:13:13.964Z,22.30
2023-05-13T12:15:42.590Z,21.80
2023-05-13T12:18:10.878Z,23.80
2023-05-13T12:20:39.003Z,17.50
2023-05-13T12:23:07.283Z,21.80
2023-05-13T12:25:36.035Z,20.70
2023-05-13T12:28:07.132Z,15.60
2023-05-13T12:30:56.863Z,20.30
2023-05-13T12:33:27.292Z,19.00
2023-05-13T12:36:14.627Z,18.90
2023-05-13T12:39:00.165Z,20.70
2023-05-13T12:41:31.035Z,18.90
2023-05-13T12:44:00.880Z,18.20
2023-05-13T12:46:29.762Z,21.10
2023-05-13T12:49:00.336Z,19.30
2023-05-13T12:51:29.842Z,20.40
2023-05-13T12:53:58.432Z,19.90
2023-05-13T12:56:26.569Z,19.10
2023-05-13T12:58:55.084Z,22.10
2023-05-13T13:01:23.731Z,24.70
2023-05-13T13:03:51.897Z,24.40
2023-05-13T13:06:20.031Z,24.00
2023-05-13T13:08:47.950Z,19.60
2023-05-13T13:11:18.977Z,21.80
2023-05-13T13:13:48.092Z,22.80
2023-05-13T13:16:16.409Z,21.20
2023-05-13T13:18:45.207Z,23.40
2023-05-13T13:21:13.423Z,21.90
2023-05-13T13:23:41.490Z,24.80
2023-05-13T13:26:09.762Z,26.10
2023-05-13T13:28:37.713Z,22.40
2023-05-13T13:31:05.809Z,19.80
2023-05-13T13:33:33.776Z,24.00
2023-05-13T13:36:02.117Z,21.00
2023-05-13T13:38:30.126Z,23.90
2023-05-13T13:40:58.187Z,19.60
2023-05-13T13:43:26.395Z,18.20
2023-05-13T13:45:54.674Z,18.80
2023-05-13T13:48:22.879Z,20.00
2023-05-13T13:50:52.805Z,25.90
2023-05-13T13:53:22.156Z,18.60
2023-05-13T13:55:50.410Z,16.80
2023-05-13T13:58:18.364Z,22.60
2023-05-13T14:00:46.443Z,21.40
2023-05-13T14:03:14.571Z,20.20
2023-05-13T14:05:42.685Z,21.10
2023-05-13T14:08:11.893Z,16.90
2023-05-13T14:10:40.368Z,18.00
2023-05-13T14:13:08.320Z,18.60
2023-05-13T14:15:39.357Z,13.80
2023-05-13T14:18:10.143Z,13.40
2023-05-13T14:20:39.247Z,19.00
2023-05-13T14:23:07.285Z,17.40
2023-05-13T14:25:35.739Z,23.00
2023-05-13T14:28:03.797Z,23.00
2023-05-13T14:30:31.738Z,16.80
2023-05-13T14:33:00.977Z,15.80
2023-05-13T14:35:29.150Z,17.80
2023-05-13T14:37:57.244Z,18.30
2023-05-13T14:40:25.215Z,16.30
2023-05-13T14:42:53.307Z,19.10
2023-05-13T14:45:21.368Z,16.60
2023-05-13T14:47:53.883Z,16.70
2023-05-13T14:50:22.423Z,18.00
2023-05-13T14:52:50.796Z,17.30
2023-05-13T14:55:18.713Z,17.70
2023-05-13T14:57:46.940Z,14.40
2023-05-13T15:00:15.694Z,15.70
2023-05-13T15:02:43.977Z,19.30
2023-05-13T15:05:12.282Z,20.00
2023-05-13T15:07:40.666Z,15.80
2023-05-13T15:10:09.176Z,21.30
2023-05-13T15:12:37.217Z,18.00
2023-05-13T15:15:06.622Z,16.40
2023-05-13T15:17:34.702Z,13.90
2023-05-13T15:20:03.186Z,17.40
2023-05-13T15:22:33.346Z,16.00
2023-05-13T15:27:30.151Z,13.00
2023-05-13T15:29:58.234Z,14.00
2023-05-13T15:32:26.304Z,14.00
2023-05-13T15:34:54.320Z,12.90
2023-05-13T15:37:22.950Z,13.80
2023-05-13T15:39:51.017Z,14.80
2023-05-13T15:42:19.033Z,16.40
2023-05-13T15:44:47.188Z,12.80
2023-05-13T15:47:15.320Z,14.50
2023-05-13T15:49:43.607Z,19.00
2023-05-13T15:52:11.696Z,13.90
2023-05-13T15:54:39.703Z,13.70
2023-05-13T15:57:07.713Z,14.60
2023-05-13T15:59:36.001Z,13.90
2023-05-13T16:02:04.243Z,11.60
2023-05-13T16:04:32.496Z,14.50
2023-05-13T16:07:00.904Z,12.50
2023-05-13T16:09:29.211Z,13.10
2023-05-13T16:11:57.278Z,14.30
2023-05-13T16:14:25.285Z,11.80
2023-05-13T16:16:53.401Z,13.40
2023-05-13T16:19:21.439Z,15.90
2023-05-13T16:21:49.470Z,13.90
2023-05-13T16:24:17.352Z,12.40
2023-05-13T16:26:45.404Z,10.90
2023-05-13T16:29:14.092Z,11.60
2023-05-13T16:31:42.092Z,10.40
2023-05-13T16:34:10.236Z,16.20
2023-05-13T16:36:38.301Z,12.30
2023-05-13T16:39:06.852Z,12.40
2023-05-13T16:41:35.781Z,12.80
2023-05-13T16:44:03.858Z,15.70
2023-05-13T16:46:35.612Z,10.90
2023-05-13T16:49:03.772Z,11.60
2023-05-13T16:51:32.002Z,16.80
2023-05-13T16:53:59.997Z,15.20
2023-05-13T16:56:27.997Z,18.10
2023-05-13T16:58:55.954Z,15.40
2023-05-13T17:01:24.158Z,15.20
2023-05-13T17:03:52.211Z,17.00
2023-05-13T17:06:20.294Z,14.20
2023-05-13T17:08:48.478Z,11.40
2023-05-13T17:11:16.924Z,13.00
2023-05-13T17:13:45.323Z,15.80
2023-05-13T17:16:13.286Z,15.70
2023-05-13T17:18:41.261Z,12.50
2023-05-13T17:21:09.428Z,16.50
2023-05-13T17:23:37.602Z,10.60
2023-05-13T17:26:05.879Z,13.80
2023-05-13T17:28:34.054Z,15.50
2023-05-13T17:31:02.147Z,12.60
2023-05-13T17:33:30.301Z,17.20
2023-05-13T17:35:58.332Z,16.20
2023-05-13T17:38:26.459Z,10.90
2023-05-13T17:40:54.677Z,13.70
2023-05-13T17:43:22.561Z,11.30
2023-05-13T17:45:50.913Z,16.40
2023-05-13T17:48:19.136Z,14.00
2023-05-13T17:50:47.573Z,16.40
2023-05-13T17:53:15.745Z,14.50
2023-05-13T17:55:43.876Z,13.60
2023-05-13T17:58:12.639Z,13.80
2023-05-13T18:00:41.036Z,14.10
2023-05-13T18:03:09.069Z,17.90
2023-05-13T18:05:37.454Z,18.60
2023-05-13T18:08:06.101Z,12.60
2023-05-13T18:10:34.339Z,13.70
2023-05-13T18:13:03.075Z,13.60
2023-05-13T18:15:31.122Z,16.20
2023-05-13T18:17:59.117Z,12.30
2023-05-13T18:20:27.148Z,14.80
2023-05-13T18:22:55.215Z,12.60
2023-05-13T18:25:23.284Z,15.10
2023-05-13T18:27:51.452Z,14.50
2023-05-13T18:30:19.907Z,13.00
2023-05-13T18:32:48.381Z,14.20
2023-05-13T18:35:16.492Z,13.30
2023-05-13T18:37:44.565Z,15.00
2023-05-13T18:40:12.948Z,11.80
2023-05-13T18:42:41.014Z,14.60
2023-05-13T18:45:10.109Z,14.00
2023-05-13T18:47:38.178Z,15.40
2023-05-13T18:50:06.949Z,17.30
2023-05-13T18:52:34.909Z,14.90
2023-05-13T18:55:04.713Z,13.60
2023-05-13T18:57:32.825Z,17.30
2023-05-13T19:00:00.906Z,16.60
2023-05-13T19:02:29.223Z,12.70
2023-05-13T19:04:57.554Z,13.70
2023-05-13T19:07:25.693Z,13.80
2023-05-13T19:09:53.645Z,15.90
2023-05-13T19:12:21.750Z,16.30
2023-05-13T19:14:49.672Z,14.90
2023-05-13T19:17:17.949Z,13.30
2023-05-13T19:19:46.038Z,12.50
2023-05-13T19:22:14.251Z,14.70
2023-05-13T19:24:42.612Z,17.00
2023-05-13T19:27:11.421Z,16.40
2023-05-13T19:29:39.493Z,16.20
2023-05-13T19:32:07.566Z,14.40
2023-05-13T19:34:35.762Z,14.40
2023-05-13T19:37:05.552Z,12.60
2023-05-13T19:39:33.649Z,14.40
2023-05-13T19:42:01.845Z,12.70
2023-05-13T19:44:31.934Z,14.50
2023-05-13T19:47:00.318Z,13.00
2023-05-13T19:49:28.883Z,15.00
2023-05-13T19:52:13.151Z,15.70
2023-05-13T19:54:41.457Z,11.90
2023-05-13T19:57:09.692Z,12.30
2023-05-13T19:59:39.580Z,15.40
2023-05-13T20:02:08.379Z,13.70
2023-05-13T20:04:36.661Z,14.30
2023-05-13T20:07:05.859Z,14.90
2023-05-13T20:09:34.939Z,17.00
2023-05-13T20:12:03.787Z,15.60
2023-05-13T20:14:46.697Z,11.20
2023-05-13T20:17:18.071Z,13.50
2023-05-13T20:19:49.606Z,14.70
2023-05-13T20:22:19.257Z,12.80
2023-05-13T20:24:50.384Z,13.70
2023-05-13T20:27:18.519Z,14.60
2023-05-13T20:29:48.137Z,12.80
2023-05-13T20:32:24.626Z,12.80
2023-05-13T20:34:54.697Z,14.40
2023-05-13T20:37:24.020Z,12.60
2023-05-13T20:39:52.381Z,17.60
2023-05-13T20:42:22.849Z,14.50
2023-05-13T20:44:51.699Z,12.40
2023-05-13T20:47:20.927Z,12.90
2023-05-13T20:49:48.881Z,16.90
2023-05-13T20:52:16.850Z,12.70
2023-05-13T20:54:45.107Z,15.20
2023-05-13T20:57:13.175Z,16.40
2023-05-13T20:59:41.351Z,11.10
2023-05-13T21:02:09.628Z,13.70
2023-05-13T21:04:37.581Z,14.70
2023-05-13T21:07:06.921Z,13.80
2023-05-13T21:09:35.071Z,17.70
2023-05-13T21:12:03.752Z,13.90
2023-05-13T21:14:31.780Z,16.50
2023-05-13T21:17:03.284Z,17.30
2023-05-13T21:19:31.347Z,14.00
2023-05-13T21:22:01.767Z,16.40
2023-05-13T21:24:29.850Z,17.00
2023-05-13T21:26:57.905Z,27.60
2023-05-13T21:29:25.888Z,27.20
2023-05-13T21:31:54.638Z,20.30
2023-05-13T21:34:22.638Z,20.90
2023-05-13T21:36:51.322Z,18.10
2023-05-13T21:39:19.401Z,19.60
2023-05-13T21:41:47.772Z,16.60
2023-05-13T21:44:16.363Z,15.50
2023-05-13T21:46:44.428Z,15.80
2023-05-13T21:49:12.542Z,15.50
2023-05-13T21:51:40.885Z,15.70
2023-05-13T21:54:08.868Z,17.70
2023-05-13T21:56:36.867Z,15.70
2023-05-13T21:59:05.003Z,17.40
2023-05-13T22:01:33.253Z,16.10
2023-05-13T22:04:01.334Z,18.30
2023-05-13T22:06:29.287Z,16.20
2023-05-13T22:08:57.280Z,17.80
2023-05-13T22:11:25.701Z,17.40
2023-05-13T22:13:53.661Z,17.30
2023-05-13T22:16:22.266Z,19.90
2023-05-13T22:18:51.290Z,16.30
2023-05-13T22:21:19.375Z,18.60
2023-05-13T22:23:47.344Z,16.40
2023-05-13T22:26:15.461Z,15.40
2023-05-13T22:28:46.635Z,15.10
2023-05-13T22:33:44.570Z,18.90
2023-05-13T22:36:12.525Z,16.80
2023-05-13T22:38:44.616Z,18.70
2023-05-13T22:41:12.889Z,15.90
2023-05-13T22:43:40.930Z,16.70
2023-05-13T22:46:08.912Z,15.30
2023-05-13T22:48:36.967Z,16.70
2023-05-13T22:51:04.921Z,14.90
2023-05-13T22:53:33.015Z,13.80
2023-05-13T22:56:01.206Z,16.50
2023-05-13T22:58:29.258Z,16.10
2023-05-13T23:00:57.435Z,16.90
2023-05-13T23:03:25.617Z,14.50
2023-05-13T23:05:56.406Z,20.20
2023-05-13T23:08:24.341Z,15.10
2023-05-13T23:10:52.586Z,16.70
2023-05-13T23:13:20.967Z,17.00
2023-05-13T23:15:49.579Z,17.80
2023-05-13T23:18:17.713Z,24.60
2023-05-13T23:20:53.389Z,19.90
2023-05-13T23:23:22.056Z,16.00
2023-05-13T23:25:50.648Z,17.60
2023-05-13T23:28:18.718Z,17.50
2023-05-13T23:30:46.791Z,19.40
2023-05-13T23:33:15.160Z,16.80
2023-05-13T23:35:43.224Z,20.20
2023-05-13T23:38:11.393Z,17.80
2023-05-13T23:40:39.385Z,23.60
2023-05-13T23:43:07.410Z,16.60
2023-05-13T23:45:35.690Z,16.30
2023-05-13T23:48:04.345Z,15.30
2023-05-13T23:50:32.586Z,13.70
2023-05-13T23:53:01.383Z,15.50
2023-05-13T23:55:29.597Z,16.10
2023-05-13T23:57:57.598Z,14.40
